Terminal Aerodrome Forecast
Issued by NWS

Home | Current Version | Previous Version | Text Only | Print | Product List | Glossary On
Versions: 1 2 3 4 5 6 7 8 9 10 11 12 13 14 15 16 17 18 19 20 21 22 23 24 25 26 27 28
551
FTUS41 KBUF 192331
TAFIAG
TAF
KIAG 192331Z 2000/2024 32011G22KT P6SM VCSH BKN035 OVC050
     FM200400 32012G22KT P6SM OVC035
     FM201300 32012KT P6SM BKN040
     FM201500 31011G17KT P6SM BKN040
     FM201700 30011G17KT P6SM SCT040=

USA.gov is the U.S. government's official web portal to all federal, state and local government web resources and services.